Time;durP1;ratioP1;P1;durP2;ratioP2;P2;SDS_P1;SDS_P2;PMS_P1;PMS_P2;Temp;Humidity;BMP_temperature;BMP_pressure;BME280_temperature;BME280_humidity;BME280_pressure;Samples;Min_cycle;Max_cycle;Signal;HPM_P1;HPM_P2
2023/09/20 00:00:11;;;;;;;1.50;1.20;;;24.00;54.70;;;;;;5092916;28;20431;-66
2023/09/20 00:02:39;;;;;;;1.73;1.40;;;24.00;54.80;;;;;;5093461;28;20424;-66
2023/09/20 00:05:12;;;;;;;1.60;1.37;;;24.00;54.80;;;;;;5093425;28;20403;-66
2023/09/20 00:07:38;;;;;;;1.50;1.27;;;24.00;54.80;;;;;;5093710;28;20403;-66
2023/09/20 00:10:04;;;;;;;1.87;1.60;;;24.00;54.80;;;;;;5093330;28;20498;-66
2023/09/20 00:12:30;;;;;;;1.50;1.20;;;24.00;54.80;;;;;;5093072;28;20463;-65
2023/09/20 00:14:59;;;;;;;1.43;1.33;;;24.00;54.80;;;;;;5093223;28;20403;-66
2023/09/20 00:17:25;;;;;;;2.53;1.50;;;24.00;54.80;;;;;;5093392;28;20638;-66
2023/09/20 00:19:51;;;;;;;1.83;1.40;;;24.00;54.80;;;;;;5093400;28;20475;-65
2023/09/20 00:22:16;;;;;;;1.93;1.30;;;24.00;54.90;;;;;;5093006;28;20197;-66
2023/09/20 00:24:42;;;;;;;1.43;1.30;;;24.00;54.90;;;;;;5093017;28;20663;-65
2023/09/20 00:27:08;;;;;;;1.80;1.50;;;24.00;54.90;;;;;;5093130;28;20182;-66
2023/09/20 00:29:34;;;;;;;1.63;1.30;;;24.00;54.90;;;;;;5092925;28;20170;-66
2023/09/20 00:31:59;;;;;;;1.77;1.30;;;24.00;54.90;;;;;;5092737;28;20811;-66
2023/09/20 00:34:26;;;;;;;1.37;1.27;;;24.00;55.50;;;;;;5092750;28;20416;-66
2023/09/20 00:36:52;;;;;;;1.90;1.27;;;24.00;54.90;;;;;;5092786;28;20235;-66
2023/09/20 00:39:17;;;;;;;2.43;1.90;;;24.00;55.00;;;;;;5092706;28;20419;-66
2023/09/20 00:41:43;;;;;;;1.70;1.30;;;23.90;54.90;;;;;;5092595;28;20310;-66
2023/09/20 00:44:08;;;;;;;1.50;1.20;;;23.90;54.90;;;;;;5092656;28;20273;-66
2023/09/20 00:46:34;;;;;;;1.70;1.30;;;24.00;55.00;;;;;;5092563;28;20177;-66
2023/09/20 00:49:01;;;;;;;1.90;1.60;;;24.00;55.00;;;;;;5092528;28;20185;-66
2023/09/20 00:51:27;;;;;;;1.80;1.40;;;24.00;55.00;;;;;;5092374;28;20455;-66
2023/09/20 00:53:55;;;;;;;1.43;1.23;;;24.00;55.00;;;;;;5092336;28;20408;-66
2023/09/20 00:56:22;;;;;;;1.97;1.47;;;24.00;55.60;;;;;;5092443;28;20974;-63
2023/09/20 00:58:49;;;;;;;1.60;1.40;;;24.00;55.00;;;;;;5092294;28;20419;-66
2023/09/20 01:01:16;;;;;;;1.90;1.43;;;24.00;55.00;;;;;;5092251;28;20498;-64
2023/09/20 01:03:43;;;;;;;1.70;1.60;;;23.90;55.00;;;;;;5092137;28;20432;-66
2023/09/20 01:06:09;;;;;;;1.60;1.30;;;23.90;55.00;;;;;;5092233;28;20502;-66
2023/09/20 01:08:35;;;;;;;2.50;1.20;;;23.90;55.00;;;;;;5092073;28;20487;-66
2023/09/20 01:11:01;;;;;;;1.33;1.20;;;23.90;55.00;;;;;;5091429;28;20319;-66
2023/09/20 01:13:27;;;;;;;2.03;1.43;;;23.90;55.00;;;;;;5091992;28;20428;-66
2023/09/20 01:15:53;;;;;;;1.67;1.40;;;23.90;55.00;;;;;;5091942;28;20203;-66
2023/09/20 01:18:19;;;;;;;2.30;1.50;;;23.90;55.00;;;;;;5091993;28;20173;-66
2023/09/20 01:20:44;;;;;;;1.60;1.50;;;24.00;55.10;;;;;;5091733;28;20443;-66
2023/09/20 01:23:10;;;;;;;1.67;1.37;;;23.90;55.00;;;;;;5089354;28;20665;-65
2023/09/20 01:25:43;;;;;;;1.40;1.30;;;24.00;55.10;;;;;;5083649;28;20519;-66
2023/09/20 01:28:09;;;;;;;1.77;1.67;;;24.00;55.10;;;;;;5090083;28;20154;-66
2023/09/20 01:30:37;;;;;;;1.77;1.20;;;23.90;55.10;;;;;;5090083;28;22377;-66
2023/09/20 01:33:06;;;;;;;2.20;1.47;;;23.90;55.10;;;;;;5090577;28;20428;-66
2023/09/20 01:35:32;;;;;;;1.47;1.20;;;23.90;55.10;;;;;;5091572;28;20415;-66
2023/09/20 01:37:59;;;;;;;1.57;1.10;;;23.90;55.10;;;;;;5091168;28;20420;-66
2023/09/20 01:40:33;;;;;;;1.50;1.23;;;23.90;55.10;;;;;;5091540;28;20430;-66
2023/09/20 01:43:03;;;;;;;1.37;1.17;;;23.90;55.10;;;;;;5091382;28;20511;-65
2023/09/20 01:45:29;;;;;;;1.67;1.27;;;23.90;55.20;;;;;;5091496;28;20388;-66
2023/09/20 01:48:00;;;;;;;1.30;1.00;;;23.90;55.20;;;;;;5091414;28;20973;-66
2023/09/20 01:50:26;;;;;;;1.83;1.33;;;23.90;55.20;;;;;;5091256;28;20621;-66
2023/09/20 01:52:54;;;;;;;1.87;1.33;;;23.90;55.20;;;;;;5091243;28;20477;-66
2023/09/20 01:55:21;;;;;;;1.60;1.30;;;23.90;55.20;;;;;;5091300;28;20519;-66
2023/09/20 01:57:48;;;;;;;1.43;1.23;;;23.90;55.20;;;;;;5091281;28;20486;-66
2023/09/20 02:00:22;;;;;;;1.63;1.47;;;23.90;55.30;;;;;;5091241;28;20510;-66
2023/09/20 02:02:51;;;;;;;1.30;1.13;;;23.90;55.30;;;;;;5091119;28;20428;-66
2023/09/20 02:05:17;;;;;;;1.60;1.50;;;23.90;55.30;;;;;;5091117;28;20436;-65
2023/09/20 02:07:45;;;;;;;1.40;1.23;;;23.90;55.30;;;;;;5091165;28;20442;-66
2023/09/20 02:10:11;;;;;;;1.70;1.30;;;23.90;55.30;;;;;;5091120;28;20420;-66
2023/09/20 02:12:37;;;;;;;1.80;1.30;;;23.90;55.30;;;;;;5090925;28;20542;-66
2023/09/20 02:15:07;;;;;;;1.50;1.40;;;23.90;55.30;;;;;;5091004;28;20499;-66
2023/09/20 02:17:35;;;;;;;1.40;1.10;;;23.90;55.40;;;;;;5091027;28;20174;-66
2023/09/20 02:20:08;;;;;;;1.23;1.00;;;23.90;55.30;;;;;;5090853;28;20439;-66
2023/09/20 02:22:35;;;;;;;1.20;1.10;;;23.90;55.40;;;;;;5090781;28;20427;-65
2023/09/20 02:25:03;;;;;;;1.60;1.50;;;23.90;55.40;;;;;;5090879;28;20942;-66
2023/09/20 02:27:30;;;;;;;1.30;1.10;;;23.90;55.40;;;;;;5090885;28;20415;-65
2023/09/20 02:29:56;;;;;;;1.67;1.37;;;23.90;55.40;;;;;;5090856;28;20415;-65
2023/09/20 02:32:23;;;;;;;1.50;1.30;;;23.90;55.40;;;;;;5090936;28;20470;-66
2023/09/20 02:34:49;;;;;;;1.63;1.23;;;23.90;55.40;;;;;;5090854;28;20165;-65
2023/09/20 02:37:15;;;;;;;1.60;1.10;;;23.90;56.00;;;;;;5090775;28;20406;-66
2023/09/20 02:39:40;;;;;;;1.60;1.47;;;23.90;55.40;;;;;;5090775;28;20204;-66
2023/09/20 02:42:06;;;;;;;1.77;1.30;;;23.90;55.40;;;;;;5089404;28;20198;-67
2023/09/20 02:44:32;;;;;;;1.80;1.40;;;23.90;55.50;;;;;;5090690;28;20227;-66
2023/09/20 02:46:58;;;;;;;1.60;1.30;;;23.90;55.50;;;;;;5090656;28;20205;-66
2023/09/20 02:49:24;;;;;;;1.30;1.10;;;23.90;55.50;;;;;;5091044;28;20767;-66
2023/09/20 02:51:52;;;;;;;1.40;1.03;;;23.90;55.50;;;;;;5090498;28;20452;-67
2023/09/20 02:54:18;;;;;;;2.20;1.50;;;23.90;55.50;;;;;;5090742;28;20169;-66
2023/09/20 02:56:44;;;;;;;1.40;1.03;;;23.90;55.50;;;;;;5090822;28;20408;-65
2023/09/20 02:59:10;;;;;;;2.07;1.40;;;23.90;55.50;;;;;;5090660;28;20533;-66
2023/09/20 03:01:36;;;;;;;1.30;1.20;;;23.90;55.50;;;;;;5090767;28;21171;-65
2023/09/20 03:04:03;;;;;;;1.30;1.10;;;23.90;55.50;;;;;;5090485;28;20541;-65
2023/09/20 03:06:29;;;;;;;1.30;1.10;;;23.90;55.50;;;;;;5090479;28;20170;-66
2023/09/20 03:08:55;;;;;;;1.57;1.10;;;23.90;55.50;;;;;;5090515;28;20418;-65
2023/09/20 03:11:21;;;;;;;1.20;1.10;;;23.90;55.50;;;;;;5090316;28;20200;-65
2023/09/20 03:13:48;;;;;;;1.53;1.03;;;23.90;55.60;;;;;;5090430;28;20407;-65
2023/09/20 03:16:21;;;;;;;1.33;1.10;;;23.90;55.60;;;;;;5090401;28;20482;-65
2023/09/20 03:18:47;;;;;;;1.40;1.30;;;23.90;55.60;;;;;;5090643;28;20430;-65
2023/09/20 03:21:12;;;;;;;1.60;1.20;;;23.90;55.60;;;;;;5090340;28;20443;-65
2023/09/20 03:23:38;;;;;;;1.27;1.10;;;23.90;55.60;;;;;;5088982;28;20202;-65
2023/09/20 03:26:04;;;;;;;1.60;1.23;;;23.80;55.50;;;;;;5090433;28;20178;-65
2023/09/20 03:28:33;;;;;;;1.30;1.07;;;23.90;55.60;;;;;;5090400;28;20166;-65
2023/09/20 03:31:02;;;;;;;1.37;1.23;;;23.80;55.50;;;;;;5090256;28;21047;-63
2023/09/20 03:33:31;;;;;;;1.10;1.00;;;23.90;55.60;;;;;;5090220;28;20514;-65
2023/09/20 03:35:58;;;;;;;1.50;1.40;;;23.90;55.60;;;;;;5093137;28;20404;-66
2023/09/20 03:38:25;;;;;;;1.27;1.17;;;23.80;55.50;;;;;;5094105;28;20415;-65
2023/09/20 03:40:51;;;;;;;2.20;1.57;;;23.90;55.70;;;;;;5094074;28;20411;-65
2023/09/20 03:43:16;;;;;;;2.23;1.60;;;23.90;55.70;;;;;;5093683;28;20451;-65
2023/09/20 03:45:42;;;;;;;1.40;1.10;;;23.90;55.70;;;;;;5094028;28;20177;-65
2023/09/20 03:48:08;;;;;;;1.50;1.20;;;23.80;55.60;;;;;;5092326;28;20269;-65
2023/09/20 03:50:33;;;;;;;1.40;1.20;;;23.80;55.60;;;;;;5093578;28;20174;-65
2023/09/20 03:53:00;;;;;;;1.33;1.23;;;23.80;55.60;;;;;;5094007;28;20272;-65
2023/09/20 03:55:26;;;;;;;1.40;1.13;;;23.80;55.60;;;;;;5093545;28;20166;-66
2023/09/20 03:57:52;;;;;;;1.47;1.30;;;23.80;55.60;;;;;;5093471;28;20400;-64
2023/09/20 04:00:27;;;;;;;1.37;1.20;;;23.80;55.60;;;;;;5093384;28;21183;-66
2023/09/20 04:02:54;;;;;;;1.60;1.50;;;23.90;55.70;;;;;;5093349;28;20205;-66
2023/09/20 04:05:20;;;;;;;1.67;1.00;;;23.90;55.70;;;;;;5093341;28;20420;-66
2023/09/20 04:07:47;;;;;;;1.60;1.30;;;23.80;55.60;;;;;;5093321;28;20440;-65
2023/09/20 04:10:15;;;;;;;1.37;1.10;;;23.80;55.70;;;;;;5093190;28;20498;-66
2023/09/20 04:12:41;;;;;;;1.77;1.20;;;23.80;55.70;;;;;;5092775;28;20477;-66
2023/09/20 04:15:10;;;;;;;1.73;1.30;;;23.80;55.70;;;;;;5093104;28;20411;-65
2023/09/20 04:17:36;;;;;;;1.40;1.20;;;23.80;55.70;;;;;;5093135;28;20162;-65
2023/09/20 04:20:06;;;;;;;1.50;1.00;;;23.80;55.70;;;;;;5092966;28;20927;-65
2023/09/20 04:22:37;;;;;;;1.87;1.30;;;23.80;55.70;;;;;;5092927;28;20193;-65
2023/09/20 04:25:05;;;;;;;1.43;1.20;;;23.90;55.80;;;;;;5093221;28;20396;-65
2023/09/20 04:27:31;;;;;;;1.50;1.10;;;23.80;55.70;;;;;;5092934;28;20495;-66
2023/09/20 04:29:57;;;;;;;1.50;1.27;;;23.80;55.70;;;;;;5092968;28;20975;-65
2023/09/20 04:32:23;;;;;;;1.50;1.20;;;23.80;55.70;;;;;;5092329;28;20463;-66
2023/09/20 04:34:53;;;;;;;1.73;1.27;;;23.80;55.70;;;;;;5092792;28;20180;-65
2023/09/20 04:37:19;;;;;;;2.13;1.10;;;23.80;55.70;;;;;;5092727;28;20167;-66
2023/09/20 04:39:45;;;;;;;1.73;1.33;;;23.80;55.80;;;;;;5091339;28;20412;-66
2023/09/20 04:42:12;;;;;;;2.00;1.30;;;23.80;56.30;;;;;;5091164;28;20958;-65
2023/09/20 04:44:39;;;;;;;1.37;1.00;;;23.80;55.80;;;;;;5092561;28;20404;-66
2023/09/20 04:47:04;;;;;;;1.53;1.30;;;23.80;55.80;;;;;;5092321;28;20498;-65
2023/09/20 04:49:30;;;;;;;1.30;1.20;;;23.80;56.00;;;;;;5092480;28;20511;-64
2023/09/20 04:52:00;;;;;;;1.27;0.93;;;23.80;55.80;;;;;;5091431;28;20234;-65
2023/09/20 04:54:26;;;;;;;2.00;1.13;;;23.80;55.80;;;;;;5091861;28;20211;-66
2023/09/20 04:56:53;;;;;;;1.83;1.23;;;23.80;55.80;;;;;;5092359;28;20460;-66
2023/09/20 04:59:19;;;;;;;1.40;1.20;;;23.80;55.80;;;;;;5092201;28;20414;-66
2023/09/20 05:01:45;;;;;;;2.90;1.50;;;23.80;55.80;;;;;;5092191;28;20442;-66
2023/09/20 05:04:13;;;;;;;1.87;1.50;;;23.80;55.90;;;;;;5091948;28;20411;-66
2023/09/20 05:06:45;;;;;;;1.80;1.13;;;23.80;55.80;;;;;;5092339;28;20439;-66
2023/09/20 05:09:12;;;;;;;1.30;1.10;;;23.80;55.90;;;;;;5091896;28;20404;-64
2023/09/20 05:11:37;;;;;;;1.83;1.30;;;23.80;55.90;;;;;;5091828;28;21027;-66
2023/09/20 05:14:06;;;;;;;1.27;1.03;;;23.80;55.90;;;;;;5089881;28;20412;-65
2023/09/20 05:16:32;;;;;;;1.70;1.50;;;23.80;55.90;;;;;;5091292;28;20952;-65
2023/09/20 05:18:58;;;;;;;1.87;1.30;;;23.80;55.90;;;;;;5091878;28;20440;-66
2023/09/20 05:21:24;;;;;;;1.80;1.20;;;23.80;55.90;;;;;;5091722;28;20185;-65
2023/09/20 05:23:49;;;;;;;2.07;1.47;;;23.80;55.90;;;;;;5091680;28;20423;-65
2023/09/20 05:26:15;;;;;;;1.33;1.13;;;23.80;55.90;;;;;;5091032;28;20177;-66
2023/09/20 05:28:41;;;;;;;1.83;1.13;;;23.80;55.90;;;;;;5091323;28;20252;-66
2023/09/20 05:31:06;;;;;;;4.00;1.70;;;23.80;56.00;;;;;;5091630;28;20684;-63
2023/09/20 05:33:32;;;;;;;1.40;1.17;;;23.80;56.00;;;;;;5091501;28;20189;-65
2023/09/20 05:35:58;;;;;;;1.60;1.43;;;23.80;56.00;;;;;;5091606;28;20165;-66
2023/09/20 05:38:25;;;;;;;1.20;1.00;;;23.80;56.00;;;;;;5091621;28;20396;-66
2023/09/20 05:40:51;;;;;;;2.37;1.30;;;23.80;56.00;;;;;;5091510;28;20264;-65
2023/09/20 05:43:17;;;;;;;2.80;1.30;;;23.80;56.00;;;;;;5091299;28;20569;-66
2023/09/20 05:45:42;;;;;;;1.93;1.40;;;23.80;56.00;;;;;;5090096;28;20736;-66
2023/09/20 05:48:12;;;;;;;2.33;1.43;;;23.90;56.10;;;;;;5091565;28;20169;-64
2023/09/20 05:50:38;;;;;;;2.13;1.30;;;23.90;56.10;;;;;;5091449;28;20244;-65
2023/09/20 05:53:11;;;;;;;2.77;1.40;;;23.90;56.70;;;;;;5091477;28;20531;-65
2023/09/20 05:55:38;;;;;;;2.70;1.40;;;23.90;56.10;;;;;;5091616;28;20474;-65
2023/09/20 05:58:05;;;;;;;2.57;1.60;;;23.90;56.10;;;;;;5091438;28;20415;-65
2023/09/20 06:00:30;;;;;;;1.57;1.20;;;23.90;56.70;;;;;;5090193;28;20420;-65
2023/09/20 06:02:59;;;;;;;2.07;1.20;;;23.90;56.10;;;;;;5091296;28;20427;-65
2023/09/20 06:05:26;;;;;;;1.47;1.30;;;23.90;56.10;;;;;;5091453;28;20173;-65
2023/09/20 06:07:55;;;;;;;1.63;1.33;;;23.90;56.10;;;;;;5091716;28;20403;-64
2023/09/20 06:10:22;;;;;;;3.13;1.70;;;23.90;56.10;;;;;;5091555;28;20453;-65
2023/09/20 06:12:48;;;;;;;1.77;1.60;;;23.90;56.70;;;;;;5091433;28;20455;-66
2023/09/20 06:15:14;;;;;;;1.30;1.20;;;23.90;56.10;;;;;;5091289;28;20465;-65
2023/09/20 06:17:42;;;;;;;4.27;1.43;;;23.90;56.10;;;;;;5091352;28;20408;-65
2023/09/20 06:20:11;;;;;;;1.83;1.20;;;23.90;56.10;;;;;;5091241;28;20223;-64
2023/09/20 06:22:38;;;;;;;1.70;1.40;;;23.90;56.10;;;;;;5091319;28;20567;-66
2023/09/20 06:25:05;;;;;;;1.80;1.40;;;23.90;56.10;;;;;;5091637;28;20431;-66
2023/09/20 06:27:31;;;;;;;1.90;1.40;;;23.90;56.10;;;;;;5091530;28;20874;-65
2023/09/20 06:29:57;;;;;;;1.60;1.50;;;23.90;56.10;;;;;;5091218;28;20415;-65
2023/09/20 06:32:23;;;;;;;2.10;1.20;;;23.90;56.10;;;;;;5090946;28;20454;-64
2023/09/20 06:34:49;;;;;;;1.70;1.20;;;23.90;56.10;;;;;;5091114;28;20858;-65
2023/09/20 06:37:15;;;;;;;1.73;1.50;;;23.90;56.10;;;;;;5091180;28;20495;-65
2023/09/20 06:39:44;;;;;;;1.80;1.40;;;23.90;56.10;;;;;;5091314;28;20174;-65
2023/09/20 06:42:10;;;;;;;2.37;1.80;;;24.00;56.20;;;;;;5091304;28;20268;-65
2023/09/20 06:44:38;;;;;;;2.00;1.43;;;24.00;56.20;;;;;;5091040;28;20411;-65
2023/09/20 06:47:05;;;;;;;1.40;1.23;;;24.00;56.20;;;;;;5090968;28;20407;-65
2023/09/20 06:49:31;;;;;;;2.20;1.47;;;23.90;56.10;;;;;;5091085;28;20407;-65
2023/09/20 06:51:57;;;;;;;2.73;1.60;;;24.00;56.20;;;;;;5090568;28;20983;-66
2023/09/20 06:54:23;;;;;;;1.30;1.20;;;23.90;56.20;;;;;;5090842;28;20166;-66
2023/09/20 06:56:50;;;;;;;1.93;1.50;;;23.90;56.20;;;;;;5091088;28;20414;-65
2023/09/20 06:59:16;;;;;;;2.00;1.37;;;23.90;56.20;;;;;;5091082;28;20378;-66
2023/09/20 07:01:43;;;;;;;2.50;1.70;;;23.90;56.20;;;;;;5090798;28;20431;-65
2023/09/20 07:04:10;;;;;;;1.47;1.23;;;23.90;56.20;;;;;;5090859;28;20875;-66
2023/09/20 07:06:37;;;;;;;1.50;1.13;;;24.00;56.30;;;;;;5091204;28;20418;-64
2023/09/20 07:09:08;;;;;;;1.73;1.40;;;23.90;56.20;;;;;;5090914;28;20920;-63
2023/09/20 07:11:34;;;;;;;2.23;1.27;;;23.90;56.20;;;;;;5094469;28;20446;-64
2023/09/20 07:14:05;;;;;;;1.43;1.10;;;24.00;56.30;;;;;;5094538;28;20408;-66
2023/09/20 07:16:36;;;;;;;1.30;1.10;;;23.90;56.30;;;;;;5094594;28;20154;-65
2023/09/20 07:19:05;;;;;;;1.30;1.20;;;23.90;56.30;;;;;;5094646;28;20445;-65
2023/09/20 07:21:36;;;;;;;1.40;1.13;;;23.90;56.30;;;;;;5094359;28;20446;-64
2023/09/20 07:24:02;;;;;;;1.90;1.60;;;23.90;56.30;;;;;;5094592;28;20463;-64
2023/09/20 07:26:28;;;;;;;1.40;1.30;;;23.90;56.30;;;;;;5094628;28;20404;-66
2023/09/20 07:28:54;;;;;;;1.83;1.10;;;23.90;56.30;;;;;;5094471;28;20415;-66
2023/09/20 07:31:21;;;;;;;1.87;1.53;;;23.90;56.30;;;;;;5094318;28;20622;-65
2023/09/20 07:33:49;;;;;;;1.70;1.20;;;23.90;56.40;;;;;;5094148;28;20219;-65
2023/09/20 07:36:15;;;;;;;1.70;1.30;;;23.90;56.40;;;;;;5094422;28;20404;-66
2023/09/20 07:38:41;;;;;;;1.60;1.23;;;23.90;56.40;;;;;;5094281;28;20411;-66
2023/09/20 07:41:13;;;;;;;1.23;1.00;;;23.90;56.40;;;;;;5094241;28;20411;-63
2023/09/20 07:43:41;;;;;;;2.13;1.30;;;23.90;56.40;;;;;;5093876;28;20235;-66
2023/09/20 07:46:07;;;;;;;2.20;1.20;;;23.90;56.40;;;;;;5093793;28;20415;-64
2023/09/20 07:48:33;;;;;;;1.77;1.47;;;23.90;56.40;;;;;;5093682;28;20976;-65
2023/09/20 07:50:59;;;;;;;2.20;1.30;;;23.90;56.40;;;;;;5093328;28;20194;-64
2023/09/20 07:53:26;;;;;;;3.23;1.20;;;23.90;56.40;;;;;;5093801;28;20480;-65
2023/09/20 07:56:00;;;;;;;1.97;1.30;;;24.00;56.50;;;;;;5093745;28;20829;-66
2023/09/20 07:58:26;;;;;;;1.50;1.20;;;23.90;56.40;;;;;;5093443;28;20404;-66
2023/09/20 08:00:55;;;;;;;1.90;1.50;;;23.90;56.40;;;;;;5093465;28;20468;-66
2023/09/20 08:03:24;;;;;;;1.40;1.23;;;23.90;56.40;;;;;;5093333;28;20438;-65
2023/09/20 08:05:50;;;;;;;1.97;1.50;;;23.90;56.40;;;;;;5093332;28;20450;-66
2023/09/20 08:08:16;;;;;;;2.17;1.30;;;23.90;56.40;;;;;;5093363;28;20415;-65
2023/09/20 08:10:43;;;;;;;1.83;1.40;;;23.90;56.50;;;;;;5093133;28;20403;-65
2023/09/20 08:13:10;;;;;;;2.80;1.40;;;23.90;56.40;;;;;;5093015;28;20416;-66
2023/09/20 08:15:42;;;;;;;1.67;1.47;;;23.90;56.40;;;;;;5093137;28;20399;-65
2023/09/20 08:20:53;;;;;;;1.50;1.30;;;23.90;56.50;;;;;;5092405;28;20438;-66
2023/09/20 09:01:48;;;;;;;2.20;1.17;;;23.90;56.70;;;;;;5091996;28;20869;-65
2023/09/20 09:04:17;;;;;;;2.20;1.47;;;23.90;56.70;;;;;;5091889;28;20916;-65
2023/09/20 09:06:44;;;;;;;1.77;1.27;;;23.90;56.70;;;;;;5090583;28;20424;-65
2023/09/20 09:09:10;;;;;;;1.40;1.30;;;23.90;56.70;;;;;;5090203;28;20423;-66
2023/09/20 09:11:36;;;;;;;1.30;1.20;;;23.90;56.70;;;;;;5091868;28;20451;-65
2023/09/20 09:14:02;;;;;;;2.97;1.50;;;23.90;56.70;;;;;;5091858;28;20407;-66
2023/09/20 09:16:33;;;;;;;1.40;1.27;;;23.90;57.30;;;;;;5090547;28;20234;-66
2023/09/20 09:18:59;;;;;;;1.80;1.23;;;23.90;56.80;;;;;;5091791;28;20408;-66
2023/09/20 09:21:26;;;;;;;1.63;1.50;;;23.90;56.70;;;;;;5091430;28;20443;-64
2023/09/20 09:23:52;;;;;;;1.80;1.37;;;23.90;56.70;;;;;;5091363;28;20414;-66
2023/09/20 09:26:18;;;;;;;1.83;1.50;;;23.90;56.70;;;;;;5091368;28;20825;-66
2023/09/20 09:28:47;;;;;;;1.63;1.50;;;23.90;56.70;;;;;;5091516;28;20411;-66
2023/09/20 09:31:14;;;;;;;1.60;1.20;;;23.90;56.70;;;;;;5091228;28;20208;-65
2023/09/20 09:33:41;;;;;;;1.60;1.43;;;23.90;56.70;;;;;;5090363;28;20430;-66
2023/09/20 09:36:07;;;;;;;2.57;1.50;;;23.90;56.80;;;;;;5091547;28;20396;-66
2023/09/20 09:38:34;;;;;;;1.80;1.40;;;23.90;56.70;;;;;;5091381;28;20396;-65
2023/09/20 09:41:02;;;;;;;2.20;1.70;;;23.90;56.70;;;;;;5084117;28;20869;-65
2023/09/20 09:43:29;;;;;;;1.97;1.30;;;23.90;56.80;;;;;;5077774;28;20481;-65
2023/09/20 09:46:00;;;;;;;1.63;1.10;;;23.90;56.70;;;;;;5080512;28;20409;-66
2023/09/20 09:48:29;;;;;;;1.40;1.30;;;23.90;56.70;;;;;;5078807;28;20461;-65
2023/09/20 09:50:58;;;;;;;1.40;1.30;;;23.90;56.70;;;;;;5071490;28;20448;-66
2023/09/20 09:53:25;;;;;;;1.40;1.23;;;23.90;56.70;;;;;;5070996;28;20428;-65
2023/09/20 09:55:51;;;;;;;1.70;1.17;;;23.90;56.80;;;;;;5070940;28;20928;-67
2023/09/20 09:58:17;;;;;;;3.23;1.40;;;23.90;56.80;;;;;;5071016;28;20400;-66
2023/09/20 10:00:49;;;;;;;3.20;1.40;;;23.90;56.70;;;;;;5071016;28;20411;-66
2023/09/20 10:03:31;;;;;;;3.50;1.17;;;23.90;56.70;;;;;;5070945;28;20434;-66
2023/09/20 10:06:07;;;;;;;3.80;1.60;;;23.90;56.70;;;;;;5071334;28;20400;-66
2023/09/20 10:08:38;;;;;;;2.50;1.37;;;23.90;56.80;;;;;;5070983;28;20392;-66
2023/09/20 10:11:05;;;;;;;2.43;1.57;;;23.90;56.80;;;;;;5070831;28;20582;-66
2023/09/20 10:13:32;;;;;;;1.97;1.50;;;23.90;56.80;;;;;;5070765;28;20428;-66
2023/09/20 10:16:00;;;;;;;2.80;1.20;;;23.90;56.80;;;;;;5074786;28;20538;-65
2023/09/20 10:18:51;;;;;;;3.03;1.70;;;23.90;56.80;;;;;;5090711;28;20404;-66
2023/09/20 10:21:20;;;;;;;2.03;1.20;;;24.00;56.90;;;;;;5082983;28;20474;-64
2023/09/20 10:24:07;;;;;;;1.70;1.37;;;24.00;56.90;;;;;;5071519;28;20432;-66
2023/09/20 10:26:35;;;;;;;1.77;1.23;;;23.90;56.80;;;;;;5071414;28;20385;-65
2023/09/20 10:29:26;;;;;;;2.27;1.57;;;23.90;56.80;;;;;;5072665;28;20460;-65
2023/09/20 10:32:08;;;;;;;1.97;1.40;;;24.00;56.90;;;;;;5071739;28;20471;-65
2023/09/20 10:34:39;;;;;;;4.50;1.43;;;23.90;56.80;;;;;;5071106;28;20389;-65
2023/09/20 10:37:10;;;;;;;2.13;1.50;;;24.00;56.90;;;;;;5071197;28;20401;-65
2023/09/20 10:39:42;;;;;;;2.10;1.33;;;24.00;57.00;;;;;;5070944;28;20392;-65
2023/09/20 10:42:12;;;;;;;2.90;1.70;;;23.90;56.80;;;;;;5071417;28;20424;-65
2023/09/20 10:44:41;;;;;;;2.87;1.53;;;24.00;56.90;;;;;;5074076;28;20405;-65
2023/09/20 10:47:09;;;;;;;2.80;1.40;;;24.00;57.50;;;;;;5075542;28;20447;-65
2023/09/20 10:49:52;;;;;;;4.33;1.90;;;23.90;56.90;;;;;;5074691;28;20400;-64
2023/09/20 10:52:32;;;;;;;2.30;1.40;;;24.00;57.00;;;;;;5074641;28;20543;-66
2023/09/20 10:55:17;;;;;;;2.33;1.40;;;24.00;57.00;;;;;;5074845;28;20419;-65
2023/09/20 10:57:43;;;;;;;1.63;1.43;;;24.00;57.00;;;;;;5075309;28;20415;-64
2023/09/20 11:00:09;;;;;;;2.53;1.53;;;24.00;57.00;;;;;;5075003;28;20900;-66
2023/09/20 11:02:38;;;;;;;2.40;1.50;;;24.00;57.00;;;;;;5074633;28;20190;-65
2023/09/20 11:05:07;;;;;;;2.57;1.40;;;24.00;57.00;;;;;;5074617;28;20166;-65
2023/09/20 11:07:33;;;;;;;1.73;1.30;;;24.00;57.00;;;;;;5075268;28;20412;-63
2023/09/20 11:10:01;;;;;;;2.10;1.60;;;24.00;57.00;;;;;;5074872;28;20832;-65
2023/09/20 11:12:28;;;;;;;5.13;1.50;;;24.00;57.00;;;;;;5074958;28;20517;-65
2023/09/20 11:14:54;;;;;;;2.83;1.40;;;24.00;57.00;;;;;;5074987;28;20835;-65
2023/09/20 11:17:20;;;;;;;3.10;1.70;;;24.00;57.00;;;;;;5074909;28;20781;-65
2023/09/20 11:19:47;;;;;;;2.33;1.40;;;24.00;57.00;;;;;;5073279;28;20439;-66
2023/09/20 11:22:15;;;;;;;3.73;2.87;;;24.00;57.10;;;;;;5074900;28;20606;-65
2023/09/20 11:24:42;;;;;;;8.30;5.50;;;24.00;57.10;;;;;;5074983;28;20440;-64
2023/09/20 11:27:08;;;;;;;17.60;10.97;;;24.00;57.10;;;;;;5074824;28;20408;-65
2023/09/20 11:29:38;;;;;;;21.80;13.67;;;24.00;57.10;;;;;;5075005;28;20447;-65
2023/09/20 11:32:10;;;;;;;38.97;18.30;;;24.00;57.10;;;;;;5074409;28;20547;-64
2023/09/20 11:34:50;;;;;;;46.80;24.10;;;24.00;57.10;;;;;;5074418;28;20399;-66
2023/09/20 11:37:20;;;;;;;44.17;24.93;;;24.00;57.10;;;;;;5074672;28;20479;-66
2023/09/20 11:39:47;;;;;;;47.47;26.63;;;24.00;57.20;;;;;;5074170;28;20889;-66
2023/09/20 11:42:26;;;;;;;49.60;30.60;;;24.00;57.20;;;;;;5074434;28;20429;-66
2023/09/20 11:45:01;;;;;;;47.70;30.70;;;24.00;57.20;;;;;;5074527;28;20770;-66
2023/09/20 11:47:31;;;;;;;51.57;29.63;;;24.00;57.20;;;;;;5074522;28;20384;-66
2023/09/20 11:49:57;;;;;;;54.47;31.30;;;24.00;57.20;;;;;;5074480;28;20465;-65
2023/09/20 11:52:23;;;;;;;58.70;32.70;;;24.00;57.30;;;;;;5074680;28;20491;-65
2023/09/20 11:54:48;;;;;;;48.30;29.67;;;24.00;57.30;;;;;;5073435;28;20905;-65
2023/09/20 11:57:17;;;;;;;58.17;30.03;;;24.00;57.30;;;;;;5074058;28;20219;-65
2023/09/20 11:59:43;;;;;;;54.97;31.60;;;24.00;57.30;;;;;;5074427;28;20544;-63
2023/09/20 12:02:12;;;;;;;54.23;29.47;;;24.00;57.20;;;;;;5074152;28;20928;-66
2023/09/20 12:04:38;;;;;;;51.70;31.10;;;24.00;57.50;;;;;;5074367;28;20477;-66
2023/09/20 12:07:03;;;;;;;56.37;31.13;;;24.00;57.30;;;;;;5074470;28;20459;-65
2023/09/20 12:09:29;;;;;;;51.43;29.97;;;24.00;57.30;;;;;;5074540;28;20989;-66
2023/09/20 12:11:55;;;;;;;44.97;26.80;;;24.00;57.30;;;;;;5074353;28;20249;-67
2023/09/20 12:14:20;;;;;;;48.13;28.83;;;24.00;57.30;;;;;;5074047;28;20193;-66
2023/09/20 12:16:49;;;;;;;47.33;28.90;;;24.10;57.40;;;;;;5073584;28;20863;-66
2023/09/20 12:19:16;;;;;;;46.17;28.30;;;24.00;57.30;;;;;;5074090;28;20258;-67
2023/09/20 12:21:44;;;;;;;58.07;29.30;;;24.00;57.30;;;;;;5073676;28;20435;-66
2023/09/20 12:24:11;;;;;;;44.00;27.93;;;24.00;57.30;;;;;;5074122;28;20409;-66
2023/09/20 12:26:37;;;;;;;47.33;28.80;;;24.10;57.40;;;;;;5073953;28;20486;-66
2023/09/20 12:29:03;;;;;;;43.13;29.70;;;24.00;57.40;;;;;;5073982;28;20773;-66
2023/09/20 12:31:28;;;;;;;43.47;28.10;;;24.00;57.40;;;;;;5073737;28;20251;-66
2023/09/20 12:33:54;;;;;;;42.47;26.87;;;24.10;57.40;;;;;;5073955;28;20174;-66
2023/09/20 12:36:21;;;;;;;39.60;26.13;;;24.00;57.40;;;;;;5073544;28;20166;-66
2023/09/20 12:38:50;;;;;;;48.57;28.27;;;24.10;57.50;;;;;;5073519;28;20188;-66
2023/09/20 12:41:18;;;;;;;47.03;28.33;;;24.10;57.50;;;;;;5073796;28;21255;-66
2023/09/20 12:43:44;;;;;;;35.57;25.40;;;24.00;57.40;;;;;;5073347;28;20429;-66
2023/09/20 12:46:10;;;;;;;44.70;25.87;;;24.10;57.60;;;;;;5073547;28;20882;-66
2023/09/20 12:48:37;;;;;;;35.97;24.90;;;24.00;57.50;;;;;;5073309;28;20409;-66
2023/09/20 12:51:04;;;;;;;41.33;25.13;;;24.10;57.50;;;;;;5073334;28;20452;-66
2023/09/20 12:53:33;;;;;;;40.67;26.20;;;24.10;57.50;;;;;;5072882;28;20433;-65
2023/09/20 12:56:00;;;;;;;32.83;22.67;;;24.10;57.50;;;;;;5073250;28;20448;-66
2023/09/20 12:58:26;;;;;;;39.73;24.97;;;24.10;57.60;;;;;;5073111;28;20537;-66
2023/09/20 13:00:51;;;;;;;36.23;25.73;;;24.10;57.60;;;;;;5073557;28;20410;-67
2023/09/20 13:03:17;;;;;;;41.37;24.10;;;24.10;57.50;;;;;;5073352;28;20271;-66
2023/09/20 13:05:45;;;;;;;33.87;21.50;;;24.10;57.60;;;;;;5073009;28;20201;-67
2023/09/20 13:08:13;;;;;;;34.83;22.90;;;24.10;57.60;;;;;;5072797;28;20196;-66
2023/09/20 13:10:38;;;;;;;32.77;21.50;;;24.10;57.60;;;;;;5073287;28;20486;-67
2023/09/20 13:13:08;;;;;;;38.83;23.13;;;24.10;57.50;;;;;;5073110;28;20535;-66
2023/09/20 13:15:34;;;;;;;31.93;21.87;;;24.10;57.60;;;;;;5072933;28;20177;-64
2023/09/20 13:18:01;;;;;;;35.53;24.10;;;24.10;57.60;;;;;;5073246;28;20455;-67
2023/09/20 13:20:27;;;;;;;30.63;21.43;;;24.10;57.60;;;;;;5072704;28;20916;-66
2023/09/20 13:22:56;;;;;;;31.77;20.40;;;24.10;57.60;;;;;;5072758;28;20432;-66
2023/09/20 13:25:22;;;;;;;31.10;20.97;;;24.10;57.60;;;;;;5073215;28;20885;-66